createdAt,value
2023-05-06T00:00:26.711Z,81.02
2023-05-06T00:01:26.696Z,81.12
2023-05-06T00:02:26.755Z,81.02
2023-05-06T00:03:26.974Z,81.02
2023-05-06T00:04:26.781Z,80.92
2023-05-06T00:05:26.643Z,81.12
2023-05-06T00:06:26.648Z,81.22
2023-05-06T00:07:26.617Z,81.32
2023-05-06T00:08:26.621Z,81.12
2023-05-06T00:09:26.598Z,81.12
2023-05-06T00:10:26.580Z,81.02
2023-05-06T00:11:26.562Z,81.42
2023-05-06T00:12:26.563Z,81.42
2023-05-06T00:13:26.538Z,81.56
2023-05-06T00:14:26.540Z,81.97
2023-05-06T00:15:26.509Z,82.21
2023-05-06T00:16:26.539Z,82.51
2023-05-06T00:17:26.521Z,82.92
2023-05-06T00:18:26.478Z,83.02
2023-05-06T00:19:26.458Z,82.81
2023-05-06T00:20:26.473Z,83.06
2023-05-06T00:21:26.438Z,83.46
2023-05-06T00:22:26.427Z,83.67
2023-05-06T00:23:26.402Z,83.56
2023-05-06T00:24:26.410Z,83.67
2023-05-06T00:25:26.383Z,83.67
2023-05-06T00:26:26.377Z,83.36
2023-05-06T00:27:26.365Z,83.77
2023-05-06T00:28:26.346Z,83.77
2023-05-06T00:29:26.341Z,83.36
2023-05-06T00:30:26.326Z,83.16
2023-05-06T00:31:26.353Z,84.38
2023-05-06T00:32:26.383Z,84.72
2023-05-06T00:33:26.285Z,84.93
2023-05-06T00:34:26.276Z,84.78
2023-05-06T00:35:26.256Z,85.02
2023-05-06T00:36:26.350Z,85.13
2023-05-06T00:37:26.230Z,85.13
2023-05-06T00:38:26.219Z,85.13
2023-05-06T00:39:26.205Z,84.93
2023-05-06T00:40:26.193Z,84.82
2023-05-06T00:41:26.186Z,84.72
2023-05-06T00:42:26.167Z,85.23
2023-05-06T00:43:26.154Z,85.53
2023-05-06T00:44:26.142Z,85.83
2023-05-06T00:45:26.132Z,85.94
2023-05-06T00:46:26.171Z,85.83
2023-05-06T00:47:26.103Z,86.08
2023-05-06T00:48:26.092Z,86.28
2023-05-06T00:49:26.072Z,86.18
2023-05-06T00:50:26.069Z,86.08
2023-05-06T00:51:26.077Z,86.49
2023-05-06T00:52:26.209Z,86.69
2023-05-06T00:53:26.032Z,86.69
2023-05-06T00:54:26.033Z,86.89
2023-05-06T00:55:26.017Z,86.89
2023-05-06T00:56:26.007Z,87.20
2023-05-06T00:57:26.006Z,87.30
2023-05-06T00:58:25.972Z,87.30
2023-05-06T00:59:25.953Z,87.09
2023-05-06T01:00:25.942Z,86.89
2023-05-06T01:01:25.966Z,87.44
2023-05-06T01:02:33.126Z,87.64
2023-05-06T01:03:25.994Z,87.85
2023-05-06T01:04:25.885Z,88.19
2023-05-06T01:05:25.919Z,88.60
2023-05-06T01:06:25.861Z,88.70
2023-05-06T01:07:25.847Z,88.70
2023-05-06T01:08:25.983Z,88.70
2023-05-06T01:09:25.825Z,88.70
2023-05-06T01:10:25.808Z,88.70
2023-05-06T01:11:25.797Z,89.01
2023-05-06T01:12:25.784Z,89.21
2023-05-06T01:13:25.792Z,89.11
2023-05-06T01:14:25.778Z,88.80
2023-05-06T01:15:25.745Z,88.90
2023-05-06T01:16:25.870Z,88.80
2023-05-06T01:17:25.749Z,89.01
2023-05-06T01:18:25.704Z,88.50
2023-05-06T01:19:25.705Z,88.64
2023-05-06T01:21:25.667Z,88.74
2023-05-06T01:22:25.654Z,88.84
2023-05-06T01:23:25.640Z,88.84
2023-05-06T01:24:25.741Z,88.34
2023-05-06T01:25:25.631Z,88.84
2023-05-06T01:26:25.675Z,89.30
2023-05-06T01:27:25.600Z,89.09
2023-05-06T01:28:25.574Z,89.30
2023-05-06T01:29:25.566Z,89.39
2023-05-06T01:30:25.552Z,89.39
2023-05-06T01:31:25.574Z,89.39
2023-05-06T01:32:25.539Z,89.30
2023-05-06T01:33:25.518Z,89.19
2023-05-06T01:34:25.496Z,89.03
2023-05-06T01:35:25.489Z,89.44
2023-05-06T01:36:25.473Z,89.84
2023-05-06T01:37:25.459Z,90.05
2023-05-06T01:38:25.446Z,90.29
2023-05-06T01:39:25.447Z,90.50
2023-05-06T01:40:25.442Z,90.80
2023-05-06T01:41:25.409Z,91.11
2023-05-06T01:42:25.392Z,90.80
2023-05-06T01:43:25.385Z,90.19
2023-05-06T01:44:25.370Z,89.99
2023-05-06T01:45:25.355Z,90.74
2023-05-06T01:46:25.379Z,90.85
2023-05-06T01:47:25.360Z,90.94
2023-05-06T01:48:25.323Z,90.64
2023-05-06T01:49:25.333Z,89.83
2023-05-06T01:50:25.292Z,89.42
2023-05-06T01:51:25.305Z,89.36
2023-05-06T01:52:25.268Z,89.87
2023-05-06T01:53:25.262Z,89.87
2023-05-06T01:54:25.236Z,90.07
2023-05-06T01:55:25.227Z,90.01
2023-05-06T01:56:25.330Z,90.31
2023-05-06T01:57:25.200Z,90.93
2023-05-06T01:58:25.185Z,91.03
2023-05-06T01:59:25.180Z,91.13
2023-05-06T02:00:25.161Z,91.24
2023-05-06T02:01:25.244Z,90.72
2023-05-06T02:02:25.240Z,90.63
2023-05-06T02:03:25.169Z,91.95
2023-05-06T02:04:25.113Z,92.56
2023-05-06T02:05:25.099Z,92.15
2023-05-06T02:06:25.084Z,92.46
2023-05-06T02:07:25.069Z,92.76
2023-05-06T02:08:25.056Z,93.01
2023-05-06T02:09:25.045Z,93.48
2023-05-06T02:10:25.035Z,93.58
2023-05-06T02:11:25.042Z,93.99
2023-05-06T02:12:25.101Z,93.68
2023-05-06T02:13:24.997Z,93.89
2023-05-06T02:14:24.978Z,93.78
2023-05-06T02:15:24.968Z,93.68
2023-05-06T02:16:24.973Z,93.83
2023-05-06T02:17:25.002Z,93.38
2023-05-06T02:18:24.927Z,93.01
2023-05-06T02:19:24.925Z,93.93
2023-05-06T02:20:24.919Z,94.64
2023-05-06T02:21:24.896Z,94.95
2023-05-06T02:22:24.885Z,94.44
2023-05-06T02:23:24.866Z,94.34
2023-05-06T02:24:24.857Z,94.23
2023-05-06T02:25:24.841Z,94.44
2023-05-06T02:26:24.823Z,94.44
2023-05-06T02:27:24.812Z,94.48
2023-05-06T02:28:24.894Z,94.38
2023-05-06T02:29:24.787Z,95.00
2023-05-06T02:30:24.773Z,95.00
2023-05-06T02:31:24.796Z,95.00
2023-05-06T02:32:24.782Z,95.20
2023-05-06T02:33:24.734Z,95.00
2023-05-06T02:34:24.723Z,95.00
2023-05-06T02:35:24.715Z,94.79
2023-05-06T02:36:24.695Z,95.09
2023-05-06T02:37:24.700Z,95.09
2023-05-06T02:38:24.674Z,95.04
2023-05-06T02:39:24.657Z,95.00
2023-05-06T02:40:24.641Z,95.04
2023-05-06T02:41:24.633Z,95.14
2023-05-06T02:42:24.642Z,95.45
2023-05-06T02:43:24.609Z,95.75
2023-05-06T02:44:24.687Z,95.45
2023-05-06T02:45:24.590Z,95.45
2023-05-06T02:46:24.824Z,95.45
2023-05-06T02:47:24.621Z,95.09
2023-05-06T02:48:24.549Z,94.22
2023-05-06T02:49:24.531Z,94.02
2023-05-06T02:50:24.529Z,93.92
2023-05-06T02:51:24.506Z,94.83
2023-05-06T02:52:24.487Z,94.83
2023-05-06T02:53:24.497Z,95.04
2023-05-06T02:54:24.461Z,94.94
2023-05-06T02:55:24.478Z,94.73
2023-05-06T02:56:24.438Z,94.83
2023-05-06T02:57:24.423Z,94.94
2023-05-06T02:58:24.408Z,95.04
2023-05-06T02:59:24.394Z,95.14
2023-05-06T03:00:24.501Z,94.94
2023-05-06T03:01:24.415Z,94.73
2023-05-06T03:02:24.402Z,94.43
2023-05-06T03:03:24.357Z,94.53
2023-05-06T03:04:24.381Z,94.43
2023-05-06T03:05:24.323Z,94.32
2023-05-06T03:06:24.299Z,94.32
2023-05-06T03:07:24.290Z,94.17
2023-05-06T03:08:24.289Z,93.45
2023-05-06T03:09:24.263Z,93.76
2023-05-06T03:10:24.253Z,93.24
2023-05-06T03:11:24.239Z,93.35
2023-05-06T03:12:24.226Z,92.98
2023-05-06T03:13:24.226Z,93.09
2023-05-06T03:14:24.197Z,92.82
2023-05-06T03:15:24.191Z,92.31
2023-05-06T03:16:24.312Z,92.87
2023-05-06T03:17:24.170Z,93.68
2023-05-06T03:18:24.151Z,93.89
2023-05-06T03:19:24.130Z,94.70
2023-05-06T03:20:24.132Z,94.81
2023-05-06T03:21:24.137Z,94.50
2023-05-06T03:22:24.091Z,94.81
2023-05-06T03:23:24.084Z,94.70
2023-05-06T03:24:24.065Z,94.91
2023-05-06T03:25:24.054Z,95.73
2023-05-06T03:26:24.040Z,97.47
2023-05-06T03:27:24.031Z,97.88
2023-05-06T03:28:24.014Z,97.88
2023-05-06T03:29:23.999Z,97.67
2023-05-06T03:30:23.985Z,97.67
2023-05-06T03:31:23.995Z,97.67
2023-05-06T03:32:24.246Z,97.36
2023-05-06T03:33:23.951Z,97.52
2023-05-06T03:34:23.931Z,97.52
2023-05-06T03:35:23.935Z,97.42
2023-05-06T03:36:23.914Z,97.32
2023-05-06T03:37:23.897Z,97.22
2023-05-06T03:38:23.883Z,97.22
2023-05-06T03:39:23.863Z,97.32
2023-05-06T03:40:23.859Z,97.11
2023-05-06T03:41:23.841Z,96.91
2023-05-06T03:42:23.827Z,96.81
2023-05-06T03:43:23.825Z,96.91
2023-05-06T03:44:23.800Z,96.60
2023-05-06T03:45:23.785Z,96.71
2023-05-06T03:46:23.800Z,96.75
2023-05-06T03:47:23.776Z,97.06
2023-05-06T03:48:23.772Z,96.81
2023-05-06T03:49:23.735Z,96.71
2023-05-06T03:50:23.722Z,96.71
2023-05-06T03:51:23.728Z,96.81
2023-05-06T03:52:23.698Z,96.71
2023-05-06T03:53:23.683Z,96.71
2023-05-06T03:54:23.673Z,96.71
2023-05-06T03:55:23.674Z,96.71
2023-05-06T03:56:23.647Z,96.60
2023-05-06T03:57:23.635Z,96.50
2023-05-06T03:58:23.612Z,96.30
2023-05-06T03:59:23.608Z,96.30
2023-05-06T04:00:23.603Z,96.50
2023-05-06T04:01:23.592Z,95.99
2023-05-06T04:02:23.673Z,95.99
2023-05-06T04:03:23.662Z,95.69
2023-05-06T04:04:23.634Z,95.69
2023-05-06T04:05:23.526Z,95.53
2023-05-06T04:06:23.512Z,95.44
2023-05-06T04:07:23.510Z,95.03
2023-05-06T04:08:23.508Z,95.12
2023-05-06T04:09:23.471Z,94.92
2023-05-06T04:10:23.459Z,95.23
2023-05-06T04:11:23.444Z,94.58
2023-05-06T04:12:23.435Z,94.31
2023-05-06T04:13:23.419Z,94.31
2023-05-06T04:14:23.415Z,94.17
2023-05-06T04:15:23.391Z,93.80
2023-05-06T04:16:23.425Z,93.90
2023-05-06T04:17:23.370Z,94.21
2023-05-06T04:18:23.351Z,94.37
2023-05-06T04:19:23.340Z,94.06
2023-05-06T04:20:23.432Z,93.55
2023-05-06T04:21:23.313Z,93.55
2023-05-06T04:22:23.299Z,93.65
2023-05-06T04:23:23.293Z,93.45
2023-05-06T04:24:23.268Z,93.55
2023-05-06T04:25:23.265Z,93.24
2023-05-06T04:26:23.247Z,93.04
2023-05-06T04:27:23.237Z,93.70
2023-05-06T04:28:23.224Z,94.00
2023-05-06T04:29:23.212Z,93.90
2023-05-06T04:30:23.200Z,94.00
2023-05-06T04:31:23.203Z,93.90
2023-05-06T04:32:23.173Z,94.11
2023-05-06T04:33:23.166Z,93.96
2023-05-06T04:34:23.151Z,93.70
2023-05-06T04:35:23.138Z,94.21
2023-05-06T04:36:23.147Z,94.11
2023-05-06T04:37:23.108Z,94.21
2023-05-06T04:38:23.099Z,94.06
2023-05-06T04:39:23.085Z,94.17
2023-05-06T04:40:23.072Z,94.11
2023-05-06T04:41:23.062Z,94.00
2023-05-06T04:42:23.044Z,94.51
2023-05-06T04:43:23.033Z,94.47
2023-05-06T04:44:23.023Z,94.06
2023-05-06T04:45:23.009Z,93.96
2023-05-06T04:46:23.097Z,93.65
2023-05-06T04:47:23.021Z,93.65
2023-05-06T04:48:22.968Z,93.45
2023-05-06T04:49:22.957Z,93.65
2023-05-06T04:50:22.953Z,93.10
2023-05-06T04:51:22.952Z,92.90
2023-05-06T04:52:22.943Z,92.90
2023-05-06T04:53:22.907Z,92.18
2023-05-06T04:54:22.890Z,92.75
2023-05-06T04:55:22.891Z,91.93
2023-05-06T04:56:22.867Z,91.02
2023-05-06T04:57:22.861Z,91.18
2023-05-06T04:58:22.839Z,91.48
2023-05-06T04:59:22.845Z,89.91
2023-05-06T05:00:22.811Z,89.91
2023-05-06T05:01:22.835Z,90.31
2023-05-06T05:02:22.868Z,89.81
2023-05-06T05:03:22.855Z,89.16
2023-05-06T05:04:22.761Z,89.16
2023-05-06T05:05:22.750Z,88.59
2023-05-06T05:06:22.736Z,89.05
2023-05-06T05:07:22.726Z,89.20
2023-05-06T05:08:22.748Z,89.09
2023-05-06T05:09:22.708Z,89.05
2023-05-06T05:10:22.685Z,89.30
2023-05-06T05:11:22.679Z,89.46
2023-05-06T05:12:22.655Z,89.66
2023-05-06T05:13:22.693Z,89.05
2023-05-06T05:14:22.664Z,89.26
2023-05-06T05:15:22.622Z,88.70
2023-05-06T05:16:22.709Z,88.70
2023-05-06T05:17:22.635Z,87.75
2023-05-06T05:18:22.585Z,86.69
2023-05-06T05:19:22.568Z,86.22
2023-05-06T05:20:22.554Z,86.52
2023-05-06T05:22:22.538Z,86.67
2023-05-06T05:23:22.518Z,87.75
2023-05-06T05:24:22.604Z,86.95
2023-05-06T05:25:22.487Z,86.12
2023-05-06T05:26:22.488Z,82.80
2023-05-06T05:27:22.473Z,81.41
2023-05-06T05:28:22.454Z,81.33
2023-05-06T05:29:22.448Z,79.95
2023-05-06T05:30:22.437Z,81.25
2023-05-06T05:31:22.439Z,82.36
2023-05-06T05:32:22.453Z,82.61
2023-05-06T05:33:22.416Z,84.03
2023-05-06T05:34:22.375Z,83.72
2023-05-06T05:35:22.371Z,83.92
2023-05-06T05:36:22.347Z,82.63
2023-05-06T05:37:22.340Z,81.03
2023-05-06T05:38:22.319Z,79.47
2023-05-06T05:39:22.313Z,79.23
2023-05-06T05:40:22.321Z,78.02
2023-05-06T05:41:22.281Z,78.69
2023-05-06T05:42:22.271Z,76.08
2023-05-06T05:43:22.254Z,75.54
2023-05-06T05:44:22.244Z,75.07
2023-05-06T05:45:22.228Z,72.94
2023-05-06T05:46:22.239Z,72.17
2023-05-06T05:47:22.223Z,72.64
2023-05-06T05:48:22.193Z,70.52
2023-05-06T05:49:22.182Z,71.53
2023-05-06T05:50:22.168Z,71.06
2023-05-06T05:51:22.152Z,69.72
2023-05-06T05:52:22.151Z,67.47
2023-05-06T05:53:22.125Z,68.28
2023-05-06T05:54:22.117Z,69.28
2023-05-06T05:55:22.102Z,70.82
2023-05-06T05:56:22.182Z,72.47
2023-05-06T05:57:22.072Z,71.50
2023-05-06T05:58:22.062Z,70.25
2023-05-06T05:59:22.047Z,68.81
2023-05-06T06:00:22.034Z,69.72
2023-05-06T06:01:22.032Z,69.01
2023-05-06T06:02:22.103Z,69.68
2023-05-06T06:03:22.106Z,68.14
2023-05-06T06:04:22.007Z,67.84
2023-05-06T06:05:21.969Z,66.66
2023-05-06T06:06:21.966Z,65.96
2023-05-06T06:07:21.940Z,66.90
2023-05-06T06:08:21.930Z,66.07
2023-05-06T06:09:21.915Z,65.23
2023-05-06T06:10:21.908Z,65.03
2023-05-06T06:12:21.973Z,66.97
2023-05-06T06:13:22.036Z,65.83
2023-05-06T06:14:21.860Z,65.90
2023-05-06T06:15:21.840Z,66.07
2023-05-06T06:16:21.890Z,66.00
2023-05-06T06:17:21.813Z,64.59
2023-05-06T06:18:21.801Z,65.36
2023-05-06T06:19:21.786Z,63.83
2023-05-06T06:20:21.777Z,64.22
2023-05-06T06:21:21.760Z,64.92
2023-05-06T06:22:21.750Z,64.86
2023-05-06T06:23:21.750Z,66.90
2023-05-06T06:24:21.728Z,66.36
2023-05-06T06:25:21.739Z,65.83
2023-05-06T06:26:21.697Z,64.77
2023-05-06T06:27:21.688Z,62.53
2023-05-06T06:28:21.844Z,63.56
2023-05-06T06:29:21.663Z,64.16
2023-05-06T06:30:21.649Z,63.69
2023-05-06T06:31:21.673Z,63.49
2023-05-06T06:32:21.618Z,64.46
2023-05-06T06:33:21.613Z,64.66
2023-05-06T06:34:21.598Z,63.89
2023-05-06T06:35:21.586Z,64.09
2023-05-06T06:36:21.571Z,64.46
2023-05-06T06:37:21.567Z,63.49
2023-05-06T06:38:21.549Z,64.75
2023-05-06T06:39:21.531Z,65.79
2023-05-06T06:40:21.520Z,65.99
2023-05-06T06:41:21.507Z,66.90
2023-05-06T06:42:21.496Z,66.63
2023-05-06T06:43:21.478Z,67.57
2023-05-06T06:44:21.604Z,67.34
2023-05-06T06:45:21.452Z,67.57
2023-05-06T06:46:21.619Z,67.77
2023-05-06T06:47:21.430Z,68.44
2023-05-06T06:48:21.421Z,70.01
2023-05-06T06:49:21.406Z,72.61
2023-05-06T06:50:21.393Z,72.47
2023-05-06T06:51:21.378Z,72.47
2023-05-06T06:52:21.366Z,72.17
2023-05-06T06:53:21.370Z,71.73
2023-05-06T06:54:21.343Z,71.09
2023-05-06T06:55:21.328Z,71.06
2023-05-06T06:56:21.314Z,69.61
2023-05-06T06:57:21.302Z,68.14
2023-05-06T06:58:21.296Z,66.54
2023-05-06T06:59:21.277Z,64.97
2023-05-06T07:00:21.388Z,63.83
2023-05-06T07:01:21.276Z,63.33
2023-05-06T07:02:21.247Z,63.20
2023-05-06T07:03:21.224Z,63.06
2023-05-06T07:04:21.271Z,64.30
2023-05-06T07:05:21.204Z,65.33
2023-05-06T07:06:21.209Z,65.86
2023-05-06T07:07:21.177Z,66.36
2023-05-06T07:08:21.165Z,65.40
2023-05-06T07:09:21.148Z,64.63
2023-05-06T07:10:21.140Z,63.17
2023-05-06T07:11:21.122Z,61.93
2023-05-06T07:12:21.107Z,61.01
2023-05-06T07:13:21.166Z,61.26
2023-05-06T07:14:21.085Z,61.66
2023-05-06T07:15:21.073Z,60.85
2023-05-06T07:16:21.111Z,59.74
2023-05-06T07:17:21.111Z,59.02
2023-05-06T07:18:21.102Z,58.92
2023-05-06T07:19:21.020Z,59.44
2023-05-06T07:20:21.009Z,59.55
2023-05-06T07:21:20.995Z,59.22
2023-05-06T07:22:21.008Z,59.27
2023-05-06T07:23:20.975Z,61.23
2023-05-06T07:24:20.959Z,61.87
2023-05-06T07:25:20.954Z,62.06
2023-05-06T07:26:20.935Z,61.66
2023-05-06T07:27:20.922Z,61.96
2023-05-06T07:28:20.932Z,62.09
2023-05-06T07:29:20.971Z,62.26
2023-05-06T07:30:23.060Z,61.43
2023-05-06T07:31:20.943Z,61.20
2023-05-06T07:32:20.889Z,60.77
2023-05-06T07:33:20.851Z,61.20
2023-05-06T07:34:20.840Z,62.54
2023-05-06T07:35:20.828Z,61.81
2023-05-06T07:36:20.812Z,61.60
2023-05-06T07:37:20.814Z,61.51
2023-05-06T07:38:20.783Z,61.60
2023-05-06T07:39:20.788Z,61.18
2023-05-06T07:40:20.764Z,61.18
2023-05-06T07:41:20.751Z,60.74
2023-05-06T07:42:20.738Z,60.44
2023-05-06T07:43:20.724Z,62.13
2023-05-06T07:44:20.714Z,62.40
2023-05-06T07:45:20.705Z,63.07
2023-05-06T07:46:20.742Z,63.47
2023-05-06T07:47:20.738Z,62.64
2023-05-06T07:48:20.842Z,62.51
2023-05-06T07:49:20.654Z,61.18
2023-05-06T07:50:20.643Z,61.35
2023-05-06T07:51:20.622Z,60.72
2023-05-06T07:52:20.612Z,59.59
2023-05-06T07:53:20.599Z,58.76
2023-05-06T07:54:20.587Z,58.96
2023-05-06T07:55:20.618Z,58.33
2023-05-06T07:56:20.561Z,58.16
2023-05-06T07:57:20.545Z,60.15
2023-05-06T07:58:20.539Z,60.41
2023-05-06T07:59:20.550Z,59.42
2023-05-06T08:00:20.511Z,61.40
2023-05-06T08:01:20.491Z,60.44
2023-05-06T08:02:20.540Z,60.35
2023-05-06T08:03:20.589Z,60.11
2023-05-06T08:04:20.654Z,59.09
2023-05-06T08:05:20.443Z,57.83
2023-05-06T08:06:20.429Z,57.14
2023-05-06T08:07:20.413Z,56.35
2023-05-06T08:08:20.400Z,54.48
2023-05-06T08:09:22.998Z,53.03
2023-05-06T08:10:20.373Z,52.51
2023-05-06T08:11:20.360Z,52.39
2023-05-06T08:12:20.350Z,51.04
2023-05-06T08:13:20.374Z,49.59
2023-05-06T08:14:20.326Z,47.53
2023-05-06T08:15:20.315Z,47.21
2023-05-06T08:16:20.685Z,45.86
2023-05-06T08:17:20.299Z,45.76
2023-05-06T08:18:23.022Z,44.19
2023-05-06T08:19:20.266Z,43.06
2023-05-06T08:20:20.368Z,42.26
2023-05-06T08:21:20.263Z,43.62
2023-05-06T08:22:20.231Z,44.01
2023-05-06T08:23:20.229Z,44.04
2023-05-06T08:24:20.232Z,45.09
2023-05-06T08:25:20.214Z,45.31
2023-05-06T08:26:20.183Z,45.53
2023-05-06T08:27:20.165Z,46.00
2023-05-06T08:28:20.156Z,44.85
2023-05-06T08:29:20.144Z,43.31
2023-05-06T08:30:20.134Z,43.98
2023-05-06T08:31:20.134Z,47.50
2023-05-06T08:32:20.107Z,47.90
2023-05-06T08:33:20.090Z,50.05
2023-05-06T08:34:20.084Z,48.17
2023-05-06T08:35:20.079Z,46.39
2023-05-06T08:36:20.160Z,44.75
2023-05-06T08:37:20.046Z,43.60
2023-05-06T08:38:20.035Z,43.86
2023-05-06T08:39:20.025Z,44.18
2023-05-06T08:40:20.024Z,44.77
2023-05-06T08:41:20.018Z,43.88
2023-05-06T08:42:19.999Z,44.87
2023-05-06T08:43:19.976Z,43.45
2023-05-06T08:44:19.974Z,43.23
2023-05-06T08:45:19.972Z,43.01
2023-05-06T08:46:20.096Z,42.40
2023-05-06T08:47:19.932Z,43.42
2023-05-06T08:48:19.929Z,42.34
2023-05-06T08:49:19.918Z,44.40
2023-05-06T08:50:19.909Z,43.86
2023-05-06T08:51:19.888Z,41.92
2023-05-06T08:52:19.905Z,40.50
2023-05-06T08:53:19.893Z,39.56
2023-05-06T08:54:19.856Z,40.60
2023-05-06T08:55:19.839Z,43.66
2023-05-06T08:56:19.833Z,43.32
2023-05-06T08:57:19.829Z,42.81
2023-05-06T08:58:19.813Z,42.61
2023-05-06T08:59:19.794Z,41.65
2023-05-06T09:00:19.828Z,39.85
2023-05-06T09:01:19.818Z,40.60
2023-05-06T09:02:19.807Z,41.19
2023-05-06T09:03:19.865Z,43.13
2023-05-06T09:04:19.731Z,44.40
2023-05-06T09:05:19.720Z,43.59
2023-05-06T09:06:19.721Z,43.07
2023-05-06T09:07:19.694Z,44.21
2023-05-06T09:08:19.816Z,45.76
2023-05-06T09:09:19.677Z,44.94
2023-05-06T09:10:19.725Z,45.44
2023-05-06T09:11:19.650Z,45.02
2023-05-06T09:12:19.638Z,43.93
2023-05-06T09:13:19.816Z,42.95
2023-05-06T09:14:19.621Z,42.63
2023-05-06T09:15:19.605Z,41.58
2023-05-06T09:16:19.662Z,41.37
2023-05-06T09:17:19.585Z,40.54
2023-05-06T09:18:19.575Z,41.17
2023-05-06T09:19:19.565Z,39.24
2023-05-06T09:20:19.584Z,37.89
2023-05-06T09:21:19.543Z,36.68
2023-05-06T09:23:19.514Z,36.37
2023-05-06T09:24:19.526Z,36.78
2023-05-06T09:25:19.485Z,37.60
2023-05-06T09:26:19.481Z,37.68
2023-05-06T09:27:19.479Z,37.29
2023-05-06T09:28:19.467Z,39.28
2023-05-06T09:29:19.441Z,40.54
2023-05-06T09:30:19.426Z,39.02
2023-05-06T09:31:19.470Z,38.90
2023-05-06T09:32:19.410Z,38.63
2023-05-06T09:33:19.394Z,39.44
2023-05-06T09:34:19.379Z,38.92
2023-05-06T09:35:19.366Z,41.10
2023-05-06T09:36:19.372Z,41.31
2023-05-06T09:37:19.348Z,40.64
2023-05-06T09:38:19.330Z,39.91
2023-05-06T09:39:19.324Z,40.86
2023-05-06T09:40:19.368Z,42.08
2023-05-06T09:41:19.296Z,43.65
2023-05-06T09:42:19.286Z,43.75
2023-05-06T09:43:19.280Z,45.42
2023-05-06T09:44:19.265Z,46.88
2023-05-06T09:45:19.249Z,47.49
2023-05-06T09:46:19.314Z,47.35
2023-05-06T09:47:19.232Z,46.58
2023-05-06T09:48:19.213Z,44.95
2023-05-06T09:49:19.207Z,42.99
2023-05-06T09:50:19.201Z,40.52
2023-05-06T09:51:19.178Z,40.32
2023-05-06T09:52:19.169Z,38.58
2023-05-06T09:53:19.157Z,37.65
2023-05-06T09:54:19.146Z,38.39
2023-05-06T09:55:19.139Z,39.14
2023-05-06T09:56:19.160Z,39.75
2023-05-06T09:57:19.114Z,39.65
2023-05-06T09:58:19.106Z,38.90
2023-05-06T09:59:19.093Z,38.61
2023-05-06T10:00:19.081Z,39.85
2023-05-06T10:01:32.584Z,39.12
2023-05-06T10:02:21.157Z,39.61
2023-05-06T10:03:19.139Z,39.85
2023-05-06T10:04:19.221Z,40.88
2023-05-06T10:05:19.149Z,41.87
2023-05-06T10:06:19.008Z,43.61
2023-05-06T10:07:19.002Z,44.01
2023-05-06T10:08:18.992Z,46.42
2023-05-06T10:09:18.981Z,48.06
2023-05-06T10:10:18.961Z,47.61
2023-05-06T10:11:18.953Z,46.65
2023-05-06T10:12:18.960Z,47.15
2023-05-06T10:13:19.000Z,45.73
2023-05-06T10:14:18.964Z,46.16
2023-05-06T10:15:18.918Z,44.88
2023-05-06T10:16:18.909Z,43.77
2023-05-06T10:17:18.891Z,43.55
2023-05-06T10:18:18.870Z,43.47
2023-05-06T10:19:18.868Z,45.12
2023-05-06T10:20:18.844Z,44.70
2023-05-06T10:21:18.834Z,45.66
2023-05-06T10:22:18.822Z,44.54
2023-05-06T10:23:18.806Z,44.83
2023-05-06T10:24:18.794Z,43.87
2023-05-06T10:25:18.785Z,44.09
2023-05-06T10:26:18.770Z,45.34
2023-05-06T10:27:18.758Z,44.80
2023-05-06T10:28:28.503Z,43.15
2023-05-06T10:29:20.733Z,42.77
2023-05-06T10:30:18.717Z,43.57
2023-05-06T10:31:18.717Z,45.16
2023-05-06T10:32:18.700Z,46.60
2023-05-06T10:33:18.684Z,46.60
2023-05-06T10:34:18.668Z,46.58
2023-05-06T10:35:18.655Z,47.52
2023-05-06T10:36:18.649Z,48.04
2023-05-06T10:37:18.645Z,47.96
2023-05-06T10:38:18.619Z,48.28
2023-05-06T10:39:18.604Z,48.30
2023-05-06T10:40:18.598Z,47.54
2023-05-06T10:41:18.731Z,46.52
2023-05-06T10:42:18.564Z,45.24
2023-05-06T10:43:18.551Z,43.31
2023-05-06T10:44:18.709Z,43.73
2023-05-06T10:45:18.534Z,43.53
2023-05-06T10:46:18.534Z,45.01
2023-05-06T10:47:18.510Z,45.20
2023-05-06T10:48:18.490Z,43.13
2023-05-06T10:49:18.484Z,41.47
2023-05-06T10:50:18.469Z,40.72
2023-05-06T10:51:18.467Z,39.28
2023-05-06T10:52:18.439Z,39.30
2023-05-06T10:53:18.429Z,40.42
2023-05-06T10:54:18.417Z,40.66
2023-05-06T10:55:18.410Z,42.02
2023-05-06T10:56:18.388Z,44.09
2023-05-06T10:57:18.387Z,45.08
2023-05-06T10:58:18.368Z,46.29
2023-05-06T10:59:18.356Z,46.29
2023-05-06T11:00:18.528Z,46.66
2023-05-06T11:01:18.365Z,45.75
2023-05-06T11:02:18.371Z,45.11
2023-05-06T11:03:18.369Z,44.69
2023-05-06T11:04:18.300Z,43.65
2023-05-06T11:05:18.287Z,42.94
2023-05-06T11:06:18.269Z,41.99
2023-05-06T11:07:18.257Z,39.69
2023-05-06T11:08:18.244Z,38.14
2023-05-06T11:09:18.234Z,36.57
2023-05-06T11:10:18.218Z,34.85
2023-05-06T11:11:18.213Z,33.98
2023-05-06T11:12:18.202Z,33.41
2023-05-06T11:13:18.240Z,34.03
2023-05-06T11:14:18.177Z,34.55
2023-05-06T11:15:18.162Z,34.94
2023-05-06T11:16:18.295Z,34.75
2023-05-06T11:17:18.147Z,34.11
2023-05-06T11:18:18.129Z,34.73
2023-05-06T11:19:18.117Z,34.46
2023-05-06T11:20:18.104Z,34.65
2023-05-06T11:21:18.094Z,35.16
2023-05-06T11:22:18.121Z,34.83
2023-05-06T11:23:18.068Z,34.61
2023-05-06T11:24:18.063Z,34.85
2023-05-06T11:25:18.048Z,35.26
2023-05-06T11:26:18.035Z,36.39
2023-05-06T11:27:18.023Z,37.12
2023-05-06T11:28:18.013Z,37.41
2023-05-06T11:29:17.992Z,38.84
2023-05-06T11:30:17.984Z,37.51
2023-05-06T11:31:18.002Z,36.29
2023-05-06T11:32:18.085Z,35.72
2023-05-06T11:33:17.954Z,36.82
2023-05-06T11:34:17.937Z,37.88
2023-05-06T11:35:17.927Z,37.45
2023-05-06T11:36:17.937Z,37.94
2023-05-06T11:37:17.896Z,38.37
2023-05-06T11:38:17.887Z,38.22
2023-05-06T11:39:17.877Z,36.93
2023-05-06T11:40:17.889Z,39.81
2023-05-06T11:41:17.848Z,38.70
2023-05-06T11:42:17.839Z,38.15
2023-05-06T11:43:17.829Z,37.15
2023-05-06T11:44:17.813Z,36.60
2023-05-06T11:45:17.805Z,35.70
2023-05-06T11:46:17.816Z,34.98
2023-05-06T11:47:17.788Z,34.24
2023-05-06T11:48:17.804Z,34.14
2023-05-06T11:49:17.762Z,35.51
2023-05-06T11:50:17.749Z,38.00
2023-05-06T11:51:17.733Z,39.91
2023-05-06T11:52:17.723Z,39.45
2023-05-06T11:53:17.710Z,38.70
2023-05-06T11:54:17.705Z,37.98
2023-05-06T11:55:17.684Z,36.52
2023-05-06T11:56:17.691Z,35.19
2023-05-06T11:57:17.660Z,34.47
2023-05-06T11:58:17.650Z,34.17
2023-05-06T11:59:17.636Z,34.31
2023-05-06T12:00:17.632Z,35.13
2023-05-06T12:01:17.615Z,36.07
2023-05-06T12:02:17.698Z,37.68
2023-05-06T12:03:17.696Z,37.35
2023-05-06T12:04:17.734Z,35.80
2023-05-06T12:05:17.567Z,35.41
2023-05-06T12:06:17.553Z,35.52
2023-05-06T12:07:17.619Z,35.99
2023-05-06T12:08:26.693Z,35.27
2023-05-06T12:09:17.522Z,34.49
2023-05-06T12:10:17.510Z,33.77
2023-05-06T12:11:17.500Z,31.86
2023-05-06T12:12:17.487Z,31.89
2023-05-06T12:13:17.530Z,31.68
2023-05-06T12:14:17.460Z,30.67
2023-05-06T12:15:17.449Z,30.48
2023-05-06T12:16:17.442Z,30.09
2023-05-06T12:17:17.424Z,30.41
2023-05-06T12:18:17.413Z,30.10
2023-05-06T12:19:17.407Z,30.41
2023-05-06T12:20:17.497Z,31.34
2023-05-06T12:21:17.376Z,31.86
2023-05-06T12:22:17.365Z,32.08
2023-05-06T12:23:17.371Z,32.83
2023-05-06T12:24:17.408Z,33.96
2023-05-06T12:25:17.343Z,35.41
2023-05-06T12:26:17.321Z,35.41
2023-05-06T12:27:17.309Z,35.51
2023-05-06T12:28:17.297Z,35.49
2023-05-06T12:29:17.287Z,34.98
2023-05-06T12:30:17.276Z,35.07
2023-05-06T12:31:17.318Z,34.65
2023-05-06T12:32:17.253Z,35.07
2023-05-06T12:33:17.244Z,35.15
2023-05-06T12:34:17.226Z,34.52
2023-05-06T12:35:17.223Z,34.34
2023-05-06T12:36:17.303Z,34.03
2023-05-06T12:37:17.194Z,34.32
2023-05-06T12:38:17.188Z,34.00
2023-05-06T12:39:17.173Z,33.08
2023-05-06T12:40:17.191Z,33.09
2023-05-06T12:41:17.152Z,32.26
2023-05-06T12:42:17.135Z,31.53
2023-05-06T12:43:17.128Z,31.84
2023-05-06T12:44:17.113Z,32.06
2023-05-06T12:45:17.103Z,33.31
2023-05-06T12:46:17.144Z,34.86
2023-05-06T12:47:17.075Z,36.10
2023-05-06T12:48:17.064Z,37.44
2023-05-06T12:49:17.054Z,37.22
2023-05-06T12:50:17.041Z,37.56
2023-05-06T12:51:17.030Z,38.70
2023-05-06T12:52:17.143Z,39.70
2023-05-06T12:53:17.008Z,39.08
2023-05-06T12:54:16.995Z,37.65
2023-05-06T12:55:16.981Z,37.06
2023-05-06T12:56:16.974Z,37.03